sensor_id;sensor_type;location;lat;lon;timestamp;P1;durP1;ratioP1;P2;durP2;ratioP2
38379;SDS011;38377;47.418;18.882;2023-09-19T00:00:22;13.07;;;6.50;;
38379;SDS011;38377;47.418;18.882;2023-09-19T00:02:54;9.15;;;5.97;;
38379;SDS011;38377;47.418;18.882;2023-09-19T00:05:24;8.25;;;6.55;;
38379;SDS011;38377;47.418;18.882;2023-09-19T00:07:53;9.60;;;5.70;;
38379;SDS011;38377;47.418;18.882;2023-09-19T00:10:21;8.43;;;6.45;;
38379;SDS011;38377;47.418;18.882;2023-09-19T00:12:49;8.15;;;5.63;;
38379;SDS011;38377;47.418;18.882;2023-09-19T00:15:17;7.13;;;6.10;;
38379;SDS011;38377;47.418;18.882;2023-09-19T00:17:42;10.77;;;6.95;;
38379;SDS011;38377;47.418;18.882;2023-09-19T00:20:08;8.68;;;6.22;;
38379;SDS011;38377;47.418;18.882;2023-09-19T00:22:40;11.43;;;7.07;;
38379;SDS011;38377;47.418;18.882;2023-09-19T00:25:10;11.98;;;6.30;;
38379;SDS011;38377;47.418;18.882;2023-09-19T00:27:39;8.52;;;6.40;;
38379;SDS011;38377;47.418;18.882;2023-09-19T00:30:10;10.02;;;6.80;;
38379;SDS011;38377;47.418;18.882;2023-09-19T00:32:47;11.88;;;6.90;;
38379;SDS011;38377;47.418;18.882;2023-09-19T00:35:13;9.02;;;6.55;;
38379;SDS011;38377;47.418;18.882;2023-09-19T00:37:42;10.82;;;6.32;;
38379;SDS011;38377;47.418;18.882;2023-09-19T00:40:08;8.52;;;6.53;;
38379;SDS011;38377;47.418;18.882;2023-09-19T00:42:40;10.73;;;6.95;;
38379;SDS011;38377;47.418;18.882;2023-09-19T00:45:16;8.77;;;6.55;;
38379;SDS011;38377;47.418;18.882;2023-09-19T00:47:48;11.00;;;6.90;;
38379;SDS011;38377;47.418;18.882;2023-09-19T00:50:20;14.70;;;6.93;;
38379;SDS011;38377;47.418;18.882;2023-09-19T00:52:50;9.88;;;6.70;;
38379;SDS011;38377;47.418;18.882;2023-09-19T00:55:21;10.05;;;7.20;;
38379;SDS011;38377;47.418;18.882;2023-09-19T00:57:47;10.40;;;6.47;;
38379;SDS011;38377;47.418;18.882;2023-09-19T01:00:15;10.88;;;7.25;;
38379;SDS011;38377;47.418;18.882;2023-09-19T01:02:41;9.20;;;6.80;;
38379;SDS011;38377;47.418;18.882;2023-09-19T01:05:08;10.20;;;7.20;;
38379;SDS011;38377;47.418;18.882;2023-09-19T01:07:34;11.43;;;6.97;;
38379;SDS011;38377;47.418;18.882;2023-09-19T01:10:04;10.68;;;7.78;;
38379;SDS011;38377;47.418;18.882;2023-09-19T01:12:57;9.32;;;7.32;;
38379;SDS011;38377;47.418;18.882;2023-09-19T01:19:01;10.38;;;7.45;;
38379;SDS011;38377;47.418;18.882;2023-09-19T01:30:24;11.95;;;7.82;;
38379;SDS011;38377;47.418;18.882;2023-09-19T01:32:55;13.43;;;8.80;;
38379;SDS011;38377;47.418;18.882;2023-09-19T01:35:22;10.38;;;7.72;;
38379;SDS011;38377;47.418;18.882;2023-09-19T01:37:48;11.77;;;8.18;;
38379;SDS011;38377;47.418;18.882;2023-09-19T01:40:15;11.45;;;8.50;;
38379;SDS011;38377;47.418;18.882;2023-09-19T01:42:45;12.20;;;8.30;;
38379;SDS011;38377;47.418;18.882;2023-09-19T01:48:19;12.85;;;8.75;;
38379;SDS011;38377;47.418;18.882;2023-09-19T01:51:09;12.90;;;8.55;;
38379;SDS011;38377;47.418;18.882;2023-09-19T01:53:41;10.73;;;8.38;;
38379;SDS011;38377;47.418;18.882;2023-09-19T01:56:21;12.32;;;8.50;;
38379;SDS011;38377;47.418;18.882;2023-09-19T01:58:53;15.07;;;9.65;;
38379;SDS011;38377;47.418;18.882;2023-09-19T02:01:24;10.43;;;9.13;;
38379;SDS011;38377;47.418;18.882;2023-09-19T02:03:52;9.20;;;8.15;;
38379;SDS011;38377;47.418;18.882;2023-09-19T02:06:19;12.95;;;9.20;;
38379;SDS011;38377;47.418;18.882;2023-09-19T02:08:46;13.10;;;9.10;;
38379;SDS011;38377;47.418;18.882;2023-09-19T02:11:12;12.25;;;9.05;;
38379;SDS011;38377;47.418;18.882;2023-09-19T02:13:38;11.85;;;9.10;;
38379;SDS011;38377;47.418;18.882;2023-09-19T02:16:05;13.45;;;8.63;;
38379;SDS011;38377;47.418;18.882;2023-09-19T02:18:32;13.68;;;9.68;;
38379;SDS011;38377;47.418;18.882;2023-09-19T02:21:00;12.32;;;9.23;;
38379;SDS011;38377;47.418;18.882;2023-09-19T02:23:26;13.60;;;9.82;;
38379;SDS011;38377;47.418;18.882;2023-09-19T02:25:59;10.60;;;8.55;;
38379;SDS011;38377;47.418;18.882;2023-09-19T02:28:29;12.75;;;9.88;;
38379;SDS011;38377;47.418;18.882;2023-09-19T02:30:57;11.85;;;9.23;;
38379;SDS011;38377;47.418;18.882;2023-09-19T02:33:23;13.75;;;10.10;;
38379;SDS011;38377;47.418;18.882;2023-09-19T02:35:49;14.80;;;10.23;;
38379;SDS011;38377;47.418;18.882;2023-09-19T02:38:15;15.98;;;10.40;;
38379;SDS011;38377;47.418;18.882;2023-09-19T02:40:45;11.15;;;9.70;;
38379;SDS011;38377;47.418;18.882;2023-09-19T02:43:11;18.35;;;10.00;;
38379;SDS011;38377;47.418;18.882;2023-09-19T02:45:37;13.57;;;10.25;;
38379;SDS011;38377;47.418;18.882;2023-09-19T02:48:03;12.73;;;9.73;;
38379;SDS011;38377;47.418;18.882;2023-09-19T02:50:29;12.07;;;9.93;;
38379;SDS011;38377;47.418;18.882;2023-09-19T02:52:55;14.93;;;10.50;;
38379;SDS011;38377;47.418;18.882;2023-09-19T02:55:21;13.50;;;10.27;;
38379;SDS011;38377;47.418;18.882;2023-09-19T02:57:47;14.02;;;10.50;;
38379;SDS011;38377;47.418;18.882;2023-09-19T03:00:14;15.20;;;10.52;;
38379;SDS011;38377;47.418;18.882;2023-09-19T03:02:41;12.27;;;9.82;;
38379;SDS011;38377;47.418;18.882;2023-09-19T03:05:08;11.88;;;10.05;;
38379;SDS011;38377;47.418;18.882;2023-09-19T03:07:36;15.88;;;10.43;;
38379;SDS011;38377;47.418;18.882;2023-09-19T03:10:03;12.50;;;10.52;;
38379;SDS011;38377;47.418;18.882;2023-09-19T03:12:31;13.82;;;10.45;;
38379;SDS011;38377;47.418;18.882;2023-09-19T03:14:57;12.65;;;9.82;;
38379;SDS011;38377;47.418;18.882;2023-09-19T03:17:22;13.52;;;9.73;;
38379;SDS011;38377;47.418;18.882;2023-09-19T03:19:48;13.55;;;10.27;;
38379;SDS011;38377;47.418;18.882;2023-09-19T03:22:15;15.73;;;10.30;;
38379;SDS011;38377;47.418;18.882;2023-09-19T03:24:41;14.70;;;9.95;;
38379;SDS011;38377;47.418;18.882;2023-09-19T03:27:09;16.90;;;10.30;;
38379;SDS011;38377;47.418;18.882;2023-09-19T03:29:35;13.00;;;9.45;;
38379;SDS011;38377;47.418;18.882;2023-09-19T03:32:01;13.80;;;10.10;;
38379;SDS011;38377;47.418;18.882;2023-09-19T03:34:28;14.60;;;10.75;;
38379;SDS011;38377;47.418;18.882;2023-09-19T03:36:54;16.08;;;9.73;;
38379;SDS011;38377;47.418;18.882;2023-09-19T03:39:22;11.13;;;9.30;;
38379;SDS011;38377;47.418;18.882;2023-09-19T03:41:48;14.05;;;9.88;;
38379;SDS011;38377;47.418;18.882;2023-09-19T03:44:14;12.88;;;10.20;;
38379;SDS011;38377;47.418;18.882;2023-09-19T03:46:40;13.80;;;9.93;;
38379;SDS011;38377;47.418;18.882;2023-09-19T03:49:06;14.07;;;10.15;;
38379;SDS011;38377;47.418;18.882;2023-09-19T03:51:31;13.45;;;10.52;;
38379;SDS011;38377;47.418;18.882;2023-09-19T03:53:59;14.32;;;11.00;;
38379;SDS011;38377;47.418;18.882;2023-09-19T03:56:25;14.50;;;10.85;;
38379;SDS011;38377;47.418;18.882;2023-09-19T03:58:50;12.05;;;10.77;;
38379;SDS011;38377;47.418;18.882;2023-09-19T04:01:16;16.27;;;10.32;;
38379;SDS011;38377;47.418;18.882;2023-09-19T04:03:43;12.68;;;10.48;;
38379;SDS011;38377;47.418;18.882;2023-09-19T04:06:15;18.13;;;10.77;;
38379;SDS011;38377;47.418;18.882;2023-09-19T04:08:42;16.30;;;10.25;;
38379;SDS011;38377;47.418;18.882;2023-09-19T04:11:08;14.82;;;9.15;;
38379;SDS011;38377;47.418;18.882;2023-09-19T04:13:34;11.30;;;8.43;;
38379;SDS011;38377;47.418;18.882;2023-09-19T04:16:00;15.52;;;9.90;;
38379;SDS011;38377;47.418;18.882;2023-09-19T04:18:26;14.15;;;8.40;;
38379;SDS011;38377;47.418;18.882;2023-09-19T04:20:52;10.10;;;7.25;;
38379;SDS011;38377;47.418;18.882;2023-09-19T04:23:18;8.90;;;6.53;;
38379;SDS011;38377;47.418;18.882;2023-09-19T04:25:46;7.75;;;6.13;;
38379;SDS011;38377;47.418;18.882;2023-09-19T04:28:13;9.85;;;4.72;;
38379;SDS011;38377;47.418;18.882;2023-09-19T04:30:39;5.00;;;3.25;;
38379;SDS011;38377;47.418;18.882;2023-09-19T04:33:07;6.70;;;2.63;;
38379;SDS011;38377;47.418;18.882;2023-09-19T04:35:33;5.03;;;1.85;;
38379;SDS011;38377;47.418;18.882;2023-09-19T04:38:00;9.07;;;2.50;;
38379;SDS011;38377;47.418;18.882;2023-09-19T04:40:26;3.67;;;1.90;;
38379;SDS011;38377;47.418;18.882;2023-09-19T04:42:57;3.10;;;1.77;;
38379;SDS011;38377;47.418;18.882;2023-09-19T04:45:24;4.38;;;1.50;;
38379;SDS011;38377;47.418;18.882;2023-09-19T04:47:50;2.92;;;1.00;;
38379;SDS011;38377;47.418;18.882;2023-09-19T04:50:15;1.35;;;0.90;;
38379;SDS011;38377;47.418;18.882;2023-09-19T04:52:43;1.38;;;1.05;;
38379;SDS011;38377;47.418;18.882;2023-09-19T04:55:12;2.15;;;1.00;;
38379;SDS011;38377;47.418;18.882;2023-09-19T04:57:45;4.57;;;1.33;;
38379;SDS011;38377;47.418;18.882;2023-09-19T05:00:15;1.33;;;0.90;;
38379;SDS011;38377;47.418;18.882;2023-09-19T05:02:45;1.33;;;1.00;;
38379;SDS011;38377;47.418;18.882;2023-09-19T05:05:11;1.58;;;0.70;;
38379;SDS011;38377;47.418;18.882;2023-09-19T05:07:39;2.17;;;0.70;;
38379;SDS011;38377;47.418;18.882;2023-09-19T05:10:06;2.00;;;0.90;;
38379;SDS011;38377;47.418;18.882;2023-09-19T05:12:33;2.78;;;0.60;;
38379;SDS011;38377;47.418;18.882;2023-09-19T05:15:00;1.58;;;0.70;;
38379;SDS011;38377;47.418;18.882;2023-09-19T05:17:27;3.72;;;0.80;;
38379;SDS011;38377;47.418;18.882;2023-09-19T05:19:53;1.08;;;0.57;;
38379;SDS011;38377;47.418;18.882;2023-09-19T05:22:19;3.35;;;0.60;;
38379;SDS011;38377;47.418;18.882;2023-09-19T05:24:45;4.32;;;1.17;;
38379;SDS011;38377;47.418;18.882;2023-09-19T05:27:14;2.05;;;0.40;;
38379;SDS011;38377;47.418;18.882;2023-09-19T05:29:44;2.78;;;0.57;;
38379;SDS011;38377;47.418;18.882;2023-09-19T05:32:10;2.92;;;0.63;;
38379;SDS011;38377;47.418;18.882;2023-09-19T05:34:37;0.95;;;0.50;;
38379;SDS011;38377;47.418;18.882;2023-09-19T05:37:04;0.82;;;0.45;;
38379;SDS011;38377;47.418;18.882;2023-09-19T05:39:33;1.55;;;0.60;;
38379;SDS011;38377;47.418;18.882;2023-09-19T05:41:59;1.27;;;0.50;;
38379;SDS011;38377;47.418;18.882;2023-09-19T05:44:25;1.42;;;0.82;;
38379;SDS011;38377;47.418;18.882;2023-09-19T05:46:51;0.68;;;0.47;;
38379;SDS011;38377;47.418;18.882;2023-09-19T05:49:18;5.95;;;0.88;;
38379;SDS011;38377;47.418;18.882;2023-09-19T05:51:46;1.70;;;0.52;;
38379;SDS011;38377;47.418;18.882;2023-09-19T05:54:12;1.33;;;0.70;;
38379;SDS011;38377;47.418;18.882;2023-09-19T05:56:38;5.03;;;1.30;;
38379;SDS011;38377;47.418;18.882;2023-09-19T05:59:03;1.42;;;0.80;;
38379;SDS011;38377;47.418;18.882;2023-09-19T06:01:30;1.52;;;0.88;;
38379;SDS011;38377;47.418;18.882;2023-09-19T06:03:58;3.83;;;0.98;;
38379;SDS011;38377;47.418;18.882;2023-09-19T06:06:25;2.88;;;1.00;;
38379;SDS011;38377;47.418;18.882;2023-09-19T06:08:51;1.02;;;0.57;;
38379;SDS011;38377;47.418;18.882;2023-09-19T06:11:17;2.38;;;0.70;;
38379;SDS011;38377;47.418;18.882;2023-09-19T06:13:45;1.00;;;0.80;;
38379;SDS011;38377;47.418;18.882;2023-09-19T06:16:12;1.13;;;0.70;;
38379;SDS011;38377;47.418;18.882;2023-09-19T06:18:38;1.52;;;0.93;;
38379;SDS011;38377;47.418;18.882;2023-09-19T06:21:04;1.33;;;0.93;;
38379;SDS011;38377;47.418;18.882;2023-09-19T06:23:31;2.42;;;0.90;;
38379;SDS011;38377;47.418;18.882;2023-09-19T06:25:56;2.20;;;1.30;;
38379;SDS011;38377;47.418;18.882;2023-09-19T06:28:22;4.18;;;1.20;;
38379;SDS011;38377;47.418;18.882;2023-09-19T06:30:51;3.35;;;1.42;;
38379;SDS011;38377;47.418;18.882;2023-09-19T06:33:17;2.10;;;1.00;;
38379;SDS011;38377;47.418;18.882;2023-09-19T06:35:47;1.45;;;0.88;;
38379;SDS011;38377;47.418;18.882;2023-09-19T06:38:14;0.90;;;0.80;;
38379;SDS011;38377;47.418;18.882;2023-09-19T06:40:40;1.02;;;0.70;;
38379;SDS011;38377;47.418;18.882;2023-09-19T06:43:09;1.30;;;0.90;;
38379;SDS011;38377;47.418;18.882;2023-09-19T06:45:36;1.13;;;0.80;;
38379;SDS011;38377;47.418;18.882;2023-09-19T06:48:01;2.63;;;0.90;;
38379;SDS011;38377;47.418;18.882;2023-09-19T06:50:28;2.22;;;1.20;;
38379;SDS011;38377;47.418;18.882;2023-09-19T06:52:56;1.10;;;1.00;;
38379;SDS011;38377;47.418;18.882;2023-09-19T06:55:24;0.95;;;0.70;;
38379;SDS011;38377;47.418;18.882;2023-09-19T06:57:53;1.50;;;0.75;;
38379;SDS011;38377;47.418;18.882;2023-09-19T07:00:19;1.20;;;1.05;;
38379;SDS011;38377;47.418;18.882;2023-09-19T07:02:59;1.33;;;0.77;;
38379;SDS011;38377;47.418;18.882;2023-09-19T07:05:29;2.22;;;0.60;;
38379;SDS011;38377;47.418;18.882;2023-09-19T07:08:00;0.90;;;0.65;;
38379;SDS011;38377;47.418;18.882;2023-09-19T07:10:27;1.70;;;0.60;;
38379;SDS011;38377;47.418;18.882;2023-09-19T07:13:00;1.00;;;0.68;;
38379;SDS011;38377;47.418;18.882;2023-09-19T07:15:28;1.27;;;0.85;;
38379;SDS011;38377;47.418;18.882;2023-09-19T07:17:56;2.20;;;0.90;;
38379;SDS011;38377;47.418;18.882;2023-09-19T07:20:22;1.58;;;1.23;;
38379;SDS011;38377;47.418;18.882;2023-09-19T07:22:52;2.60;;;1.38;;
38379;SDS011;38377;47.418;18.882;2023-09-19T07:25:34;2.00;;;1.30;;
38379;SDS011;38377;47.418;18.882;2023-09-19T07:28:04;2.92;;;1.05;;
38379;SDS011;38377;47.418;18.882;2023-09-19T07:30:30;2.05;;;1.25;;
38379;SDS011;38377;47.418;18.882;2023-09-19T07:32:55;3.13;;;1.00;;
38379;SDS011;38377;47.418;18.882;2023-09-19T07:35:24;2.92;;;1.20;;
38379;SDS011;38377;47.418;18.882;2023-09-19T07:37:50;1.88;;;1.10;;
38379;SDS011;38377;47.418;18.882;2023-09-19T07:40:19;2.97;;;1.17;;
38379;SDS011;38377;47.418;18.882;2023-09-19T07:42:45;2.45;;;1.10;;
38379;SDS011;38377;47.418;18.882;2023-09-19T07:45:12;1.52;;;1.00;;
38379;SDS011;38377;47.418;18.882;2023-09-19T07:47:49;1.30;;;0.88;;
38379;SDS011;38377;47.418;18.882;2023-09-19T07:50:16;1.48;;;1.10;;
38379;SDS011;38377;47.418;18.882;2023-09-19T07:52:49;2.45;;;1.10;;
38379;SDS011;38377;47.418;18.882;2023-09-19T07:55:18;2.03;;;1.05;;
38379;SDS011;38377;47.418;18.882;2023-09-19T07:57:48;1.77;;;1.45;;
38379;SDS011;38377;47.418;18.882;2023-09-19T08:00:14;2.78;;;1.10;;
38379;SDS011;38377;47.418;18.882;2023-09-19T08:02:40;2.13;;;1.30;;
38379;SDS011;38377;47.418;18.882;2023-09-19T08:05:10;1.73;;;1.25;;
38379;SDS011;38377;47.418;18.882;2023-09-19T08:07:37;2.22;;;1.20;;
38379;SDS011;38377;47.418;18.882;2023-09-19T08:16:10;2.72;;;1.27;;
38379;SDS011;38377;47.418;18.882;2023-09-19T08:18:47;3.25;;;1.20;;
38379;SDS011;38377;47.418;18.882;2023-09-19T08:21:33;1.58;;;0.95;;
38379;SDS011;38377;47.418;18.882;2023-09-19T08:24:04;1.48;;;1.08;;
38379;SDS011;38377;47.418;18.882;2023-09-19T08:27:00;1.15;;;0.95;;
38379;SDS011;38377;47.418;18.882;2023-09-19T08:29:30;1.80;;;0.95;;
38379;SDS011;38377;47.418;18.882;2023-09-19T08:31:57;2.78;;;1.52;;
38379;SDS011;38377;47.418;18.882;2023-09-19T08:34:24;2.38;;;1.30;;
38379;SDS011;38377;47.418;18.882;2023-09-19T08:36:53;2.03;;;1.38;;
38379;SDS011;38377;47.418;18.882;2023-09-19T08:39:55;4.07;;;1.73;;
38379;SDS011;38377;47.418;18.882;2023-09-19T08:42:20;2.65;;;1.80;;
38379;SDS011;38377;47.418;18.882;2023-09-19T08:44:49;2.60;;;1.80;;
38379;SDS011;38377;47.418;18.882;2023-09-19T08:47:15;2.83;;;2.30;;
38379;SDS011;38377;47.418;18.882;2023-09-19T08:52:42;3.38;;;2.80;;
38379;SDS011;38377;47.418;18.882;2023-09-19T08:55:12;4.38;;;3.25;;
38379;SDS011;38377;47.418;18.882;2023-09-19T08:57:47;4.13;;;3.53;;
38379;SDS011;38377;47.418;18.882;2023-09-19T09:00:15;5.72;;;4.07;;
38379;SDS011;38377;47.418;18.882;2023-09-19T09:02:46;5.72;;;3.83;;
38379;SDS011;38377;47.418;18.882;2023-09-19T09:05:14;5.30;;;4.63;;
38379;SDS011;38377;47.418;18.882;2023-09-19T09:07:41;5.93;;;4.03;;
38379;SDS011;38377;47.418;18.882;2023-09-19T09:10:08;4.18;;;3.72;;
38379;SDS011;38377;47.418;18.882;2023-09-19T09:12:35;5.18;;;4.53;;
38379;SDS011;38377;47.418;18.882;2023-09-19T09:15:02;5.25;;;4.32;;
38379;SDS011;38377;47.418;18.882;2023-09-19T09:17:29;5.30;;;3.88;;
38379;SDS011;38377;47.418;18.882;2023-09-19T09:19:55;5.30;;;3.95;;
38379;SDS011;38377;47.418;18.882;2023-09-19T09:22:22;4.15;;;3.50;;
38379;SDS011;38377;47.418;18.882;2023-09-19T09:24:52;4.72;;;3.50;;
38379;SDS011;38377;47.418;18.882;2023-09-19T09:27:19;4.45;;;3.63;;
38379;SDS011;38377;47.418;18.882;2023-09-19T09:32:28;5.20;;;3.92;;
38379;SDS011;38377;47.418;18.882;2023-09-19T09:34:59;5.57;;;4.32;;
38379;SDS011;38377;47.418;18.882;2023-09-19T09:37:26;4.85;;;4.35;;
38379;SDS011;38377;47.418;18.882;2023-09-19T09:40:00;6.28;;;4.93;;
38379;SDS011;38377;47.418;18.882;2023-09-19T09:42:39;5.63;;;4.88;;
38379;SDS011;38377;47.418;18.882;2023-09-19T09:45:12;5.97;;;5.05;;
38379;SDS011;38377;47.418;18.882;2023-09-19T09:48:02;6.57;;;5.28;;
38379;SDS011;38377;47.418;18.882;2023-09-19T09:50:38;7.20;;;5.35;;
38379;SDS011;38377;47.418;18.882;2023-09-19T09:58:50;6.70;;;5.95;;
38379;SDS011;38377;47.418;18.882;2023-09-19T10:01:21;7.22;;;6.03;;
38379;SDS011;38377;47.418;18.882;2023-09-19T10:03:51;7.00;;;5.75;;
38379;SDS011;38377;47.418;18.882;2023-09-19T10:06:22;7.72;;;6.28;;
38379;SDS011;38377;47.418;18.882;2023-09-19T10:08:58;5.47;;;4.97;;
38379;SDS011;38377;47.418;18.882;2023-09-19T10:14:12;5.18;;;4.68;;
38379;SDS011;38377;47.418;18.882;2023-09-19T10:16:40;7.15;;;5.07;;
38379;SDS011;38377;47.418;18.882;2023-09-19T10:22:14;5.18;;;4.68;;
38379;SDS011;38377;47.418;18.882;2023-09-19T10:24:41;5.60;;;4.70;;
38379;SDS011;38377;47.418;18.882;2023-09-19T10:27:09;6.03;;;4.93;;
38379;SDS011;38377;47.418;18.882;2023-09-19T10:29:36;5.32;;;4.53;;
38379;SDS011;38377;47.418;18.882;2023-09-19T10:32:05;6.22;;;4.95;;
38379;SDS011;38377;47.418;18.882;2023-09-19T10:34:33;5.22;;;4.72;;
38379;SDS011;38377;47.418;18.882;2023-09-19T10:37:02;5.38;;;4.38;;
38379;SDS011;38377;47.418;18.882;2023-09-19T10:39:32;5.20;;;4.25;;
38379;SDS011;38377;47.418;18.882;2023-09-19T10:41:58;4.53;;;4.13;;
38379;SDS011;38377;47.418;18.882;2023-09-19T10:44:31;6.10;;;4.43;;
38379;SDS011;38377;47.418;18.882;2023-09-19T10:46:58;5.80;;;4.90;;
38379;SDS011;38377;47.418;18.882;2023-09-19T10:49:24;4.65;;;4.22;;
38379;SDS011;38377;47.418;18.882;2023-09-19T10:51:54;5.90;;;4.20;;
38379;SDS011;38377;47.418;18.882;2023-09-19T10:54:26;5.18;;;4.68;;
38379;SDS011;38377;47.418;18.882;2023-09-19T10:56:59;7.55;;;3.80;;
38379;SDS011;38377;47.418;18.882;2023-09-19T10:59:25;6.22;;;3.67;;
38379;SDS011;38377;47.418;18.882;2023-09-19T11:01:59;4.30;;;3.45;;
38379;SDS011;38377;47.418;18.882;2023-09-19T11:04:40;4.28;;;3.20;;
38379;SDS011;38377;47.418;18.882;2023-09-19T11:07:09;3.28;;;2.47;;
38379;SDS011;38377;47.418;18.882;2023-09-19T11:15:02;1.75;;;1.20;;
38379;SDS011;38377;47.418;18.882;2023-09-19T11:30:46;2.80;;;0.93;;
38379;SDS011;38377;47.418;18.882;2023-09-19T11:33:32;1.38;;;0.98;;
38379;SDS011;38377;47.418;18.882;2023-09-19T11:36:13;1.30;;;0.75;;
38379;SDS011;38377;47.418;18.882;2023-09-19T11:43:47;2.00;;;1.13;;
38379;SDS011;38377;47.418;18.882;2023-09-19T11:46:17;2.22;;;1.20;;
38379;SDS011;38377;47.418;18.882;2023-09-19T11:48:49;1.83;;;1.10;;
38379;SDS011;38377;47.418;18.882;2023-09-19T11:53:56;1.92;;;1.70;;
38379;SDS011;38377;47.418;18.882;2023-09-19T11:56:25;2.53;;;1.60;;
38379;SDS011;38377;47.418;18.882;2023-09-19T11:58:56;1.83;;;1.58;;
38379;SDS011;38377;47.418;18.882;2023-09-19T12:03:56;3.83;;;1.90;;
38379;SDS011;38377;47.418;18.882;2023-09-19T12:06:23;4.25;;;1.42;;
38379;SDS011;38377;47.418;18.882;2023-09-19T12:08:55;3.22;;;1.80;;
38379;SDS011;38377;47.418;18.882;2023-09-19T12:11:22;1.52;;;1.30;;
38379;SDS011;38377;47.418;18.882;2023-09-19T12:13:48;1.35;;;1.15;;
38379;SDS011;38377;47.418;18.882;2023-09-19T12:16:15;2.20;;;1.23;;
38379;SDS011;38377;47.418;18.882;2023-09-19T12:18:44;1.35;;;1.13;;
38379;SDS011;38377;47.418;18.882;2023-09-19T12:21:32;2.38;;;1.20;;
38379;SDS011;38377;47.418;18.882;2023-09-19T12:26:30;1.75;;;1.42;;
38379;SDS011;38377;47.418;18.882;2023-09-19T12:29:11;2.13;;;1.20;;
38379;SDS011;38377;47.418;18.882;2023-09-19T12:31:46;3.83;;;1.27;;
38379;SDS011;38377;47.418;18.882;2023-09-19T12:34:31;4.43;;;1.33;;
38379;SDS011;38377;47.418;18.882;2023-09-19T12:37:04;2.00;;;0.90;;
38379;SDS011;38377;47.418;18.882;2023-09-19T12:39:43;2.25;;;1.17;;
38379;SDS011;38377;47.418;18.882;2023-09-19T12:42:21;4.30;;;1.17;;
38379;SDS011;38377;47.418;18.882;2023-09-19T12:47:20;1.52;;;1.10;;
38379;SDS011;38377;47.418;18.882;2023-09-19T12:52:47;1.10;;;0.95;;
38379;SDS011;38377;47.418;18.882;2023-09-19T13:00:44;1.70;;;0.90;;
38379;SDS011;38377;47.418;18.882;2023-09-19T13:03:16;1.90;;;1.13;;
38379;SDS011;38377;47.418;18.882;2023-09-19T13:05:47;1.77;;;1.17;;
38379;SDS011;38377;47.418;18.882;2023-09-19T13:08:41;2.17;;;1.00;;
38379;SDS011;38377;47.418;18.882;2023-09-19T13:11:15;1.63;;;1.00;;
38379;SDS011;38377;47.418;18.882;2023-09-19T13:16:23;3.80;;;1.13;;
38379;SDS011;38377;47.418;18.882;2023-09-19T13:18:54;2.33;;;1.30;;
38379;SDS011;38377;47.418;18.882;2023-09-19T13:21:31;2.50;;;1.13;;
38379;SDS011;38377;47.418;18.882;2023-09-19T13:27:05;2.78;;;1.10;;
38379;SDS011;38377;47.418;18.882;2023-09-19T13:29:33;2.10;;;1.17;;
38379;SDS011;38377;47.418;18.882;2023-09-19T13:31:59;2.30;;;0.90;;
38379;SDS011;38377;47.418;18.882;2023-09-19T13:34:27;1.08;;;0.90;;
38379;SDS011;38377;47.418;18.882;2023-09-19T13:36:54;2.72;;;1.13;;
38379;SDS011;38377;47.418;18.882;2023-09-19T13:39:26;1.98;;;1.08;;
38379;SDS011;38377;47.418;18.882;2023-09-19T13:41:52;1.98;;;1.10;;
38379;SDS011;38377;47.418;18.882;2023-09-19T13:44:18;1.50;;;1.10;;
38379;SDS011;38377;47.418;18.882;2023-09-19T13:46:44;1.55;;;1.17;;
38379;SDS011;38377;47.418;18.882;2023-09-19T13:49:11;1.33;;;1.17;;
38379;SDS011;38377;47.418;18.882;2023-09-19T13:51:36;2.35;;;1.00;;
38379;SDS011;38377;47.418;18.882;2023-09-19T13:54:02;1.35;;;0.95;;
38379;SDS011;38377;47.418;18.882;2023-09-19T13:56:31;3.97;;;1.52;;
38379;SDS011;38377;47.418;18.882;2023-09-19T13:58:57;2.47;;;1.27;;
38379;SDS011;38377;47.418;18.882;2023-09-19T14:01:23;2.17;;;1.05;;
38379;SDS011;38377;47.418;18.882;2023-09-19T14:03:51;1.85;;;1.27;;
38379;SDS011;38377;47.418;18.882;2023-09-19T14:06:19;1.63;;;1.00;;
38379;SDS011;38377;47.418;18.882;2023-09-19T14:08:45;3.25;;;1.17;;
38379;SDS011;38377;47.418;18.882;2023-09-19T14:11:12;2.53;;;1.00;;
38379;SDS011;38377;47.418;18.882;2023-09-19T14:13:39;2.30;;;1.10;;
38379;SDS011;38377;47.418;18.882;2023-09-19T14:16:05;1.80;;;1.00;;
38379;SDS011;38377;47.418;18.882;2023-09-19T14:18:35;1.40;;;1.10;;
38379;SDS011;38377;47.418;18.882;2023-09-19T14:21:04;1.33;;;0.93;;
38379;SDS011;38377;47.418;18.882;2023-09-19T14:23:39;3.50;;;1.25;;
38379;SDS011;38377;47.418;18.882;2023-09-19T14:26:06;1.58;;;1.02;;
38379;SDS011;38377;47.418;18.882;2023-09-19T14:28:32;5.40;;;2.05;;
38379;SDS011;38377;47.418;18.882;2023-09-19T14:31:05;2.03;;;1.25;;
38379;SDS011;38377;47.418;18.882;2023-09-19T14:33:32;2.83;;;1.98;;
38379;SDS011;38377;47.418;18.882;2023-09-19T14:35:57;6.03;;;3.33;;
38379;SDS011;38377;47.418;18.882;2023-09-19T14:38:23;1.58;;;1.30;;
38379;SDS011;38377;47.418;18.882;2023-09-19T14:40:58;2.17;;;1.20;;
38379;SDS011;38377;47.418;18.882;2023-09-19T14:43:28;1.63;;;1.10;;
38379;SDS011;38377;47.418;18.882;2023-09-19T14:46:06;1.60;;;0.93;;
38379;SDS011;38377;47.418;18.882;2023-09-19T14:48:36;1.45;;;1.27;;
38379;SDS011;38377;47.418;18.882;2023-09-19T14:51:05;1.73;;;1.10;;
38379;SDS011;38377;47.418;18.882;2023-09-19T14:53:34;3.03;;;1.17;;
38379;SDS011;38377;47.418;18.882;2023-09-19T14:56:04;2.17;;;1.25;;
38379;SDS011;38377;47.418;18.882;2023-09-19T14:58:30;1.70;;;1.40;;
38379;SDS011;38377;47.418;18.882;2023-09-19T15:01:06;2.78;;;1.70;;
38379;SDS011;38377;47.418;18.882;2023-09-19T15:03:35;1.23;;;1.05;;
38379;SDS011;38377;47.418;18.882;2023-09-19T15:06:02;1.77;;;1.20;;
38379;SDS011;38377;47.418;18.882;2023-09-19T15:08:30;1.85;;;1.25;;
38379;SDS011;38377;47.418;18.882;2023-09-19T15:10:56;3.17;;;1.38;;
38379;SDS011;38377;47.418;18.882;2023-09-19T15:13:23;3.15;;;1.42;;
38379;SDS011;38377;47.418;18.882;2023-09-19T15:15:58;2.90;;;1.50;;
38379;SDS011;38377;47.418;18.882;2023-09-19T15:18:27;2.95;;;1.70;;
38379;SDS011;38377;47.418;18.882;2023-09-19T15:20:55;2.60;;;1.60;;
38379;SDS011;38377;47.418;18.882;2023-09-19T15:23:20;4.13;;;1.70;;
38379;SDS011;38377;47.418;18.882;2023-09-19T15:25:49;2.45;;;1.75;;
38379;SDS011;38377;47.418;18.882;2023-09-19T15:28:15;2.08;;;1.70;;
38379;SDS011;38377;47.418;18.882;2023-09-19T15:30:41;2.97;;;1.33;;
38379;SDS011;38377;47.418;18.882;2023-09-19T15:33:07;1.90;;;1.50;;
38379;SDS011;38377;47.418;18.882;2023-09-19T15:35:32;2.22;;;1.25;;
38379;SDS011;38377;47.418;18.882;2023-09-19T15:37:58;1.75;;;1.25;;
38379;SDS011;38377;47.418;18.882;2023-09-19T15:40:25;1.85;;;1.42;;
38379;SDS011;38377;47.418;18.882;2023-09-19T15:42:52;2.17;;;1.33;;
38379;SDS011;38377;47.418;18.882;2023-09-19T15:45:21;2.40;;;1.73;;
38379;SDS011;38377;47.418;18.882;2023-09-19T15:47:47;2.05;;;1.33;;
38379;SDS011;38377;47.418;18.882;2023-09-19T15:50:12;4.50;;;1.25;;
38379;SDS011;38377;47.418;18.882;2023-09-19T15:52:40;1.67;;;1.35;;
38379;SDS011;38377;47.418;18.882;2023-09-19T15:55:06;1.50;;;1.10;;
38379;SDS011;38377;47.418;18.882;2023-09-19T15:57:34;1.52;;;1.30;;
38379;SDS011;38377;47.418;18.882;2023-09-19T16:00:01;1.33;;;1.20;;
38379;SDS011;38377;47.418;18.882;2023-09-19T16:02:29;2.55;;;1.13;;
38379;SDS011;38377;47.418;18.882;2023-09-19T16:04:55;1.90;;;1.40;;
38379;SDS011;38377;47.418;18.882;2023-09-19T16:07:21;2.03;;;1.02;;